Terminal Aerodrome Forecast
Issued by NWS Greer, SC

Home | Current Version | Previous Version | Text Only | Print | Product List | Glossary On
Versions: 1 2 3 4 5 6 7 8 9 10 11 12 13 14 15 16
000
FTUS42 KGSP 282339
TAFGSP
TAF
KGSP 282339Z 2900/2924 25006KT P6SM FEW250
     FM291600 24008KT P6SM SCT050 BKN070 PROB30 2918/2924 4SM -TSRA
      OVC040CB=

USA.gov is the U.S. government's official web portal to all federal, state and local government web resources and services.